createdAt,value
2019-02-28T00:01:48.639Z,9.93
2019-02-28T00:04:19.015Z,9.38
2019-02-28T00:06:49.365Z,9.98
2019-02-28T00:09:19.757Z,9.73
2019-02-28T00:11:50.090Z,10.18
2019-02-28T00:14:20.469Z,9.20
2019-02-28T00:16:50.827Z,10.53
2019-02-28T00:19:24.027Z,9.73
2019-02-28T00:21:53.267Z,9.55
2019-02-28T00:24:23.656Z,9.15
2019-02-28T00:26:54.007Z,10.00
2019-02-28T00:29:24.391Z,10.23
2019-02-28T00:31:54.751Z,10.08
2019-02-28T00:34:25.131Z,9.13
2019-02-28T00:36:55.490Z,9.75
2019-02-28T00:39:25.876Z,9.90
2019-02-28T00:41:56.239Z,10.60
2019-02-28T00:44:30.422Z,9.93
2019-02-28T00:46:58.699Z,9.33
2019-02-28T00:49:29.050Z,9.80
2019-02-28T00:52:01.597Z,9.38
2019-02-28T00:54:31.480Z,9.50
2019-02-28T00:57:01.853Z,9.70
2019-02-28T00:59:32.451Z,9.18
2019-02-28T01:02:02.864Z,9.48
2019-02-28T01:04:33.216Z,8.15
2019-02-28T01:07:03.602Z,9.48
2019-02-28T01:09:33.979Z,8.93
2019-02-28T01:12:04.416Z,9.28
2019-02-28T01:14:35.812Z,8.68
2019-02-28T01:17:06.850Z,8.35
2019-02-28T01:19:37.211Z,8.63
2019-02-28T01:22:07.586Z,8.38
2019-02-28T01:24:37.945Z,8.55
2019-02-28T01:27:08.318Z,8.35
2019-02-28T01:29:38.713Z,9.23
2019-02-28T01:32:09.091Z,8.40
2019-02-28T01:34:39.443Z,9.23
2019-02-28T01:37:09.817Z,8.35
2019-02-28T01:39:40.173Z,8.90
2019-02-28T01:42:10.550Z,8.85
2019-02-28T01:44:40.910Z,8.23
2019-02-28T01:47:11.293Z,9.33
2019-02-28T01:49:41.652Z,7.35
2019-02-28T01:52:12.032Z,8.23
2019-02-28T01:54:42.385Z,8.28
2019-02-28T01:57:12.758Z,8.25
2019-02-28T01:59:43.125Z,8.58
2019-02-28T02:02:13.487Z,7.72
2019-02-28T02:04:45.779Z,7.97
2019-02-28T02:07:15.991Z,8.35
2019-02-28T02:09:46.992Z,7.92
2019-02-28T02:12:17.509Z,8.43
2019-02-28T02:14:47.865Z,8.25
2019-02-28T02:17:18.243Z,8.78
2019-02-28T02:19:49.396Z,7.50
2019-02-28T02:22:19.973Z,8.33
2019-02-28T02:24:50.324Z,7.95
2019-02-28T02:27:20.703Z,8.80
2019-02-28T02:29:51.061Z,7.87
2019-02-28T02:32:21.441Z,7.85
2019-02-28T02:34:51.795Z,8.45
2019-02-28T02:37:22.177Z,8.40
2019-02-28T02:39:52.537Z,8.50
2019-02-28T02:42:22.912Z,9.25
2019-02-28T02:44:53.266Z,8.90
2019-02-28T02:47:23.651Z,9.58
2019-02-28T02:49:57.542Z,8.93
2019-02-28T02:52:30.402Z,9.05
2019-02-28T02:54:59.218Z,9.53
2019-02-28T02:57:29.601Z,8.80
2019-02-28T02:59:59.970Z,9.43
2019-02-28T03:02:33.193Z,9.48
2019-02-28T03:05:02.395Z,9.83
2019-02-28T03:07:32.775Z,9.60
2019-02-28T03:10:03.308Z,10.00
2019-02-28T03:12:54.097Z,9.38
2019-02-28T03:15:27.058Z,10.45
2019-02-28T03:17:56.569Z,10.50
2019-02-28T03:20:26.914Z,10.63
2019-02-28T03:23:02.168Z,11.08
2019-02-28T03:25:29.381Z,10.70
2019-02-28T03:27:59.737Z,11.43
2019-02-28T03:30:32.667Z,10.72
2019-02-28T03:33:02.324Z,11.40
2019-02-28T03:35:41.468Z,11.85
2019-02-28T03:38:10.194Z,12.95
2019-02-28T03:40:40.180Z,12.25
2019-02-28T03:43:10.255Z,11.97
2019-02-28T03:45:40.637Z,11.75
2019-02-28T03:48:11.013Z,13.22
2019-02-28T03:50:41.382Z,13.90
2019-02-28T03:53:11.740Z,12.23
2019-02-28T03:55:42.183Z,14.18
2019-02-28T03:58:12.550Z,12.47
2019-02-28T04:00:42.929Z,13.65
2019-02-28T04:03:13.295Z,14.07
2019-02-28T04:05:43.682Z,14.03
2019-02-28T04:08:14.051Z,14.53
2019-02-28T04:10:44.433Z,14.47
2019-02-28T04:13:19.318Z,14.83
2019-02-28T04:16:01.513Z,13.45
2019-02-28T04:18:19.080Z,14.30
2019-02-28T04:20:49.455Z,14.65
2019-02-28T04:23:19.811Z,15.03
2019-02-28T04:25:50.189Z,13.90
2019-02-28T04:28:20.579Z,15.15
2019-02-28T04:30:50.992Z,14.47
2019-02-28T04:33:21.361Z,15.25
2019-02-28T04:35:51.745Z,16.02
2019-02-28T04:38:22.104Z,15.93
2019-02-28T04:40:52.487Z,16.27
2019-02-28T04:43:22.840Z,17.42
2019-02-28T04:45:53.227Z,18.87
2019-02-28T04:48:23.588Z,17.65
2019-02-28T04:50:53.969Z,18.42
2019-02-28T04:53:24.325Z,19.30
2019-02-28T04:55:54.704Z,20.12
2019-02-28T04:58:25.902Z,19.50
2019-02-28T05:00:56.431Z,19.45
2019-02-28T05:03:29.026Z,19.07
2019-02-28T05:05:59.840Z,20.90
2019-02-28T05:08:30.202Z,20.17
2019-02-28T05:11:00.586Z,19.90
2019-02-28T05:13:30.992Z,18.80
2019-02-28T05:16:01.380Z,19.05
2019-02-28T05:18:31.740Z,18.42
2019-02-28T05:21:02.127Z,19.75
2019-02-28T05:23:36.143Z,19.70
2019-02-28T05:26:05.644Z,19.20
2019-02-28T05:28:40.354Z,21.40
2019-02-28T05:31:08.086Z,20.37
2019-02-28T05:33:42.100Z,20.50
2019-02-28T05:36:10.526Z,21.75
2019-02-28T05:38:40.898Z,21.42
2019-02-28T05:41:12.194Z,23.25
2019-02-28T05:43:55.338Z,25.30
2019-02-28T05:46:25.717Z,23.67
2019-02-28T05:48:56.079Z,23.77
2019-02-28T05:51:26.460Z,24.25
2019-02-28T05:53:56.836Z,24.47
2019-02-28T05:56:32.785Z,25.70
2019-02-28T05:58:59.432Z,24.35
2019-02-28T06:01:29.814Z,25.72
2019-02-28T06:04:02.776Z,26.05
2019-02-28T06:06:32.399Z,25.57
2019-02-28T06:09:04.234Z,27.85
2019-02-28T06:11:35.869Z,28.98
2019-02-28T06:14:07.302Z,29.82
2019-02-28T06:16:37.691Z,29.27
2019-02-28T06:19:09.012Z,28.30
2019-02-28T06:21:39.541Z,29.55
2019-02-28T06:24:12.739Z,30.77
2019-02-28T06:26:42.044Z,29.90
2019-02-28T06:29:12.410Z,29.65
2019-02-28T06:31:45.559Z,29.37
2019-02-28T06:34:14.857Z,28.95
2019-02-28T06:36:45.228Z,28.42
2019-02-28T06:39:17.521Z,30.40
2019-02-28T06:41:47.670Z,30.95
2019-02-28T06:44:18.028Z,31.87
2019-02-28T06:46:48.407Z,31.57
2019-02-28T06:49:18.780Z,30.97
2019-02-28T06:51:51.371Z,33.30
2019-02-28T06:54:21.217Z,32.93
2019-02-28T06:56:54.094Z,33.08
2019-02-28T06:59:23.652Z,32.20
2019-02-28T07:01:57.592Z,33.80
2019-02-28T07:04:27.174Z,33.23
2019-02-28T07:06:57.710Z,33.53
2019-02-28T07:09:28.070Z,33.80
2019-02-28T07:11:58.454Z,33.53
2019-02-28T07:14:28.818Z,32.10
2019-02-28T07:16:59.207Z,32.98
2019-02-28T07:19:29.569Z,32.93
2019-02-28T07:21:59.961Z,32.50
2019-02-28T07:24:30.315Z,32.78
2019-02-28T07:27:00.698Z,33.70
2019-02-28T07:29:32.115Z,34.35
2019-02-28T07:32:02.644Z,33.73
2019-02-28T07:34:33.001Z,34.45
2019-02-28T07:37:04.430Z,34.10
2019-02-28T07:39:36.546Z,36.40
2019-02-28T07:42:08.519Z,35.68
2019-02-28T07:44:38.932Z,34.30
2019-02-28T07:47:09.351Z,36.03
2019-02-28T07:49:39.716Z,36.83
2019-02-28T07:54:41.207Z,35.73
2019-02-28T07:57:16.994Z,36.63
2019-02-28T07:59:43.647Z,34.08
2019-02-28T08:02:13.835Z,34.75
2019-02-28T08:04:44.059Z,37.13
2019-02-28T08:07:14.863Z,36.70
2019-02-28T08:09:46.252Z,36.83
2019-02-28T08:12:16.736Z,36.90
2019-02-28T08:14:47.891Z,37.13
2019-02-28T08:17:18.287Z,37.55
2019-02-28T08:19:48.649Z,38.38
2019-02-28T08:22:23.273Z,38.35
2019-02-28T08:24:52.082Z,39.40
2019-02-28T08:27:25.467Z,39.88
2019-02-28T08:29:55.733Z,40.80
2019-02-28T08:32:26.127Z,40.03
2019-02-28T08:34:59.551Z,40.88
2019-02-28T08:37:28.600Z,40.67
2019-02-28T08:39:58.980Z,41.60
2019-02-28T08:42:29.371Z,40.10
2019-02-28T08:44:59.841Z,39.10
2019-02-28T08:47:30.230Z,39.88
2019-02-28T08:50:00.604Z,40.60
2019-02-28T08:52:31.001Z,40.45
2019-02-28T08:55:03.426Z,38.65
2019-02-28T08:57:33.531Z,38.63
2019-02-28T09:00:05.080Z,38.33
2019-02-28T09:02:36.143Z,38.53
2019-02-28T09:05:09.123Z,38.85
2019-02-28T09:07:39.510Z,39.35
2019-02-28T09:10:21.626Z,39.98
2019-02-28T09:12:52.031Z,38.85
2019-02-28T09:15:22.547Z,38.30
2019-02-28T09:17:58.163Z,39.92
2019-02-28T09:20:25.169Z,38.88
2019-02-28T09:23:01.509Z,39.23
2019-02-28T09:25:27.640Z,39.30
2019-02-28T09:27:58.035Z,38.67
2019-02-28T09:30:47.359Z,40.48
2019-02-28T09:33:19.381Z,39.00
2019-02-28T09:35:49.825Z,40.45
2019-02-28T09:38:20.218Z,38.28
2019-02-28T09:40:50.593Z,37.58
2019-02-28T09:43:23.986Z,39.83
2019-02-28T09:45:53.054Z,40.23
2019-02-28T09:48:23.467Z,39.42
2019-02-28T09:50:58.019Z,39.98
2019-02-28T09:53:25.939Z,37.70
2019-02-28T09:55:56.321Z,39.75
2019-02-28T09:58:29.397Z,39.42
2019-02-28T10:00:58.783Z,39.58
2019-02-28T10:03:30.146Z,40.63
2019-02-28T10:06:00.527Z,40.03
2019-02-28T10:08:33.566Z,39.75
2019-02-28T10:11:02.984Z,39.92
2019-02-28T10:13:33.377Z,40.25
2019-02-28T10:16:03.933Z,40.48
2019-02-28T10:18:35.548Z,39.63
2019-02-28T10:21:06.398Z,40.05
2019-02-28T10:23:36.793Z,39.60
2019-02-28T10:26:07.237Z,39.25
2019-02-28T10:28:37.632Z,39.33
2019-02-28T10:31:08.006Z,39.33
2019-02-28T10:33:38.473Z,39.88
2019-02-28T10:36:09.228Z,40.28
2019-02-28T10:38:40.939Z,39.95
2019-02-28T10:41:11.316Z,41.48
2019-02-28T10:43:41.710Z,40.85
2019-02-28T10:46:13.405Z,41.50
2019-02-28T10:48:50.737Z,39.65
2019-02-28T10:51:16.231Z,40.23
2019-02-28T10:53:46.632Z,38.33
2019-02-28T10:56:17.005Z,38.67
2019-02-28T10:58:50.150Z,37.15
2019-02-28T11:01:19.681Z,38.48
2019-02-28T11:03:50.607Z,37.05
2019-02-28T11:06:20.983Z,36.17
2019-02-28T11:08:51.375Z,38.00
2019-02-28T11:11:21.749Z,37.03
2019-02-28T11:13:52.251Z,37.30
2019-02-28T11:16:23.645Z,38.25
2019-02-28T11:18:54.799Z,38.02
2019-02-28T11:21:25.479Z,38.17
2019-02-28T11:23:55.938Z,37.30
2019-02-28T11:26:27.283Z,36.98
2019-02-28T11:29:02.969Z,37.70
2019-02-28T11:31:29.896Z,34.88
2019-02-28T11:34:00.516Z,36.28
2019-02-28T11:36:34.078Z,36.75
2019-02-28T11:39:04.996Z,35.95
2019-02-28T11:41:35.806Z,36.40
2019-02-28T11:44:09.283Z,36.68
2019-02-28T11:46:38.518Z,35.05
2019-02-28T11:49:08.918Z,36.20
2019-02-28T11:51:40.459Z,35.83
2019-02-28T11:54:12.273Z,36.53
2019-02-28T11:56:42.927Z,35.58
2019-02-28T11:59:13.390Z,35.38
2019-02-28T12:01:47.450Z,35.08
2019-02-28T12:04:16.132Z,36.45
2019-02-28T12:06:46.574Z,36.28
2019-02-28T12:09:19.268Z,36.45
2019-02-28T12:11:49.215Z,36.93
2019-02-28T12:14:19.624Z,36.00
2019-02-28T12:16:52.977Z,35.33
2019-02-28T12:19:22.182Z,34.30
2019-02-28T12:21:52.563Z,34.30
2019-02-28T12:24:22.968Z,33.90
2019-02-28T12:26:53.678Z,34.60
2019-02-28T12:29:24.113Z,32.40
2019-02-28T12:31:54.485Z,34.63
2019-02-28T12:34:24.877Z,33.33
2019-02-28T12:36:55.258Z,34.18
2019-02-28T12:39:25.661Z,32.90
2019-02-28T12:41:56.468Z,33.42
2019-02-28T12:44:28.123Z,34.65
2019-02-28T12:46:58.504Z,34.92
2019-02-28T12:49:28.898Z,34.92
2019-02-28T12:51:59.271Z,35.08
2019-02-28T12:54:30.377Z,36.03
2019-02-28T12:57:01.757Z,35.98
2019-02-28T12:59:32.158Z,35.28
2019-02-28T13:02:07.433Z,34.75
2019-02-28T13:04:35.831Z,34.43
2019-02-28T13:07:06.714Z,35.45
2019-02-28T13:09:37.117Z,34.60
2019-02-28T13:12:08.655Z,35.85
2019-02-28T13:14:40.664Z,35.98
2019-02-28T13:17:11.799Z,35.90
2019-02-28T13:19:42.264Z,35.95
2019-02-28T13:22:13.940Z,34.65
2019-02-28T13:24:46.551Z,36.68
2019-02-28T13:27:16.777Z,36.80
2019-02-28T13:29:47.183Z,37.20
2019-02-28T13:32:17.613Z,37.38
2019-02-28T13:34:47.980Z,38.13
2019-02-28T13:37:24.127Z,38.80
2019-02-28T13:39:54.525Z,38.50
2019-02-28T13:42:24.904Z,39.15
2019-02-28T13:44:55.308Z,37.00
2019-02-28T13:47:25.769Z,38.53
2019-02-28T13:49:56.149Z,38.65
2019-02-28T13:52:26.526Z,37.28
2019-02-28T13:54:56.918Z,38.20
2019-02-28T13:57:27.300Z,37.38
2019-02-28T13:59:57.697Z,37.53
2019-02-28T14:02:30.163Z,36.80
2019-02-28T14:05:03.026Z,36.55
2019-02-28T14:07:33.675Z,38.25
2019-02-28T14:10:08.436Z,37.63
2019-02-28T14:12:42.120Z,36.40
2019-02-28T14:15:21.338Z,38.20
2019-02-28T14:17:51.706Z,36.68
2019-02-28T14:20:24.506Z,36.95
2019-02-28T14:22:54.403Z,36.88
2019-02-28T14:25:25.167Z,36.55
2019-02-28T14:27:56.984Z,38.45
2019-02-28T14:30:29.492Z,38.60
2019-02-28T14:32:59.936Z,37.60
2019-02-28T14:35:34.058Z,37.88
2019-02-28T14:38:02.481Z,37.73
2019-02-28T14:40:32.951Z,37.17
2019-02-28T14:43:03.320Z,38.17
2019-02-28T14:45:43.932Z,37.70
2019-02-28T14:48:14.411Z,36.28
2019-02-28T14:50:44.880Z,38.20
2019-02-28T14:53:15.251Z,36.90
2019-02-28T14:55:45.653Z,37.10
2019-02-28T14:58:16.026Z,36.60
2019-02-28T15:00:46.435Z,34.80
2019-02-28T15:03:16.804Z,35.23
2019-02-28T15:05:47.205Z,37.03
2019-02-28T15:08:17.606Z,37.63
2019-02-28T15:10:48.072Z,39.27
2019-02-28T15:13:18.439Z,38.33
2019-02-28T15:15:49.459Z,37.83
2019-02-28T15:18:21.037Z,38.63
2019-02-28T15:20:51.504Z,38.63
2019-02-28T15:23:21.899Z,37.17
2019-02-28T15:25:54.204Z,38.67
2019-02-28T15:28:24.390Z,38.38
2019-02-28T15:30:54.790Z,39.67
2019-02-28T15:33:27.414Z,40.08
2019-02-28T15:35:57.366Z,39.35
2019-02-28T15:38:27.739Z,40.15
2019-02-28T15:40:58.800Z,39.75
2019-02-28T15:43:29.804Z,40.05
2019-02-28T15:46:01.280Z,40.33
2019-02-28T15:48:34.578Z,40.35
2019-02-28T15:51:03.944Z,40.50
2019-02-28T15:53:34.295Z,40.75
2019-02-28T15:56:13.050Z,41.70
2019-02-28T15:58:37.753Z,40.58
2019-02-28T16:01:09.010Z,41.65
2019-02-28T16:03:39.389Z,41.05
2019-02-28T16:06:09.791Z,42.25
2019-02-28T16:08:41.982Z,42.48
2019-02-28T16:11:12.257Z,43.50
2019-02-28T16:13:42.775Z,42.88
2019-02-28T16:16:13.347Z,43.73
2019-02-28T16:18:44.029Z,46.83
2019-02-28T16:21:15.868Z,44.50
2019-02-28T16:24:01.969Z,46.95
2019-02-28T16:26:31.099Z,47.95
2019-02-28T16:29:01.537Z,48.45
2019-02-28T16:31:32.038Z,46.73
2019-02-28T16:34:08.388Z,48.80
2019-02-28T16:36:34.511Z,47.55
2019-02-28T16:39:06.581Z,47.62
2019-02-28T16:41:37.646Z,48.40
2019-02-28T16:44:07.991Z,48.50
2019-02-28T16:46:38.397Z,49.95
2019-02-28T16:49:10.604Z,50.92
2019-02-28T16:51:40.855Z,49.48
2019-02-28T16:54:11.220Z,48.78
2019-02-28T16:56:41.614Z,48.70
2019-02-28T16:59:11.984Z,52.15
2019-02-28T17:01:42.451Z,50.55
2019-02-28T17:04:13.611Z,52.65
2019-02-28T17:06:44.909Z,51.80
2019-02-28T17:09:16.914Z,51.53
2019-02-28T17:11:51.158Z,52.67
2019-02-28T17:14:21.015Z,52.90
2019-02-28T17:16:53.045Z,52.85
2019-02-28T17:19:23.410Z,53.70
2019-02-28T17:21:53.806Z,53.45
2019-02-28T17:24:24.836Z,53.15
2019-02-28T17:26:56.872Z,53.00
2019-02-28T17:29:34.726Z,55.98
2019-02-28T17:32:05.307Z,54.25
2019-02-28T17:34:35.674Z,54.25
2019-02-28T17:37:06.407Z,56.08
2019-02-28T17:39:36.777Z,55.30
2019-02-28T17:42:08.973Z,55.48
2019-02-28T17:44:50.623Z,57.40
2019-02-28T17:47:42.044Z,56.77
2019-02-28T17:50:32.275Z,57.50
2019-02-28T17:53:52.137Z,58.00
2019-02-28T17:56:32.816Z,56.50
2019-02-28T17:59:13.684Z,56.60
2019-02-28T18:02:01.442Z,57.10
2019-02-28T18:04:59.569Z,56.40
2019-02-28T18:07:40.603Z,57.25
2019-02-28T18:10:25.404Z,58.48
2019-02-28T18:13:21.161Z,59.55
2019-02-28T18:16:29.725Z,59.55
2019-02-28T18:19:07.574Z,61.25
2019-02-28T18:22:08.168Z,58.20
2019-02-28T18:24:55.210Z,59.70
2019-02-28T18:27:51.316Z,57.75
2019-02-28T18:30:50.600Z,57.58
2019-02-28T18:33:22.194Z,59.48
2019-02-28T18:35:52.592Z,57.33
2019-02-28T18:38:29.007Z,58.17
2019-02-28T18:41:05.614Z,57.33
2019-02-28T18:43:33.671Z,57.33
2019-02-28T18:46:04.764Z,59.80
2019-02-28T18:48:35.150Z,58.90
2019-02-28T18:51:05.653Z,58.92
2019-02-28T18:53:36.051Z,58.60
2019-02-28T18:56:06.661Z,62.50
2019-02-28T18:58:37.078Z,59.42
2019-02-28T19:01:07.614Z,60.05
2019-02-28T19:03:38.004Z,58.17
2019-02-28T19:06:08.380Z,60.25
2019-02-28T19:08:41.802Z,59.88
2019-02-28T19:11:12.200Z,59.35
2019-02-28T19:13:42.595Z,58.20
2019-02-28T19:16:12.979Z,57.45
2019-02-28T19:18:43.392Z,58.58
2019-02-28T19:21:13.807Z,58.90
2019-02-28T19:23:44.208Z,59.08
2019-02-28T19:26:14.750Z,57.75
2019-02-28T19:28:46.255Z,58.95
2019-02-28T19:31:16.621Z,63.28
2019-02-28T19:33:47.181Z,61.77
2019-02-28T19:36:17.595Z,61.48
2019-02-28T19:38:48.006Z,59.98
2019-02-28T19:41:18.363Z,61.15
2019-02-28T19:43:48.773Z,61.77
2019-02-28T19:46:19.147Z,61.48
2019-02-28T19:48:49.608Z,61.10
2019-02-28T19:51:20.103Z,60.03
2019-02-28T19:53:50.494Z,59.13
2019-02-28T19:56:20.948Z,60.35
2019-02-28T19:58:51.414Z,58.95
2019-02-28T20:01:21.782Z,64.17
2019-02-28T20:03:52.179Z,60.43
2019-02-28T20:06:22.623Z,57.20
2019-02-28T20:08:53.093Z,54.63
2019-02-28T20:11:23.458Z,56.48
2019-02-28T20:13:55.522Z,57.17
2019-02-28T20:16:25.884Z,55.63
2019-02-28T20:18:56.283Z,58.75
2019-02-28T20:21:26.650Z,55.80
2019-02-28T20:23:57.134Z,54.88
2019-02-28T20:26:27.502Z,54.27
2019-02-28T20:28:57.890Z,56.35
2019-02-28T20:31:28.621Z,54.27
2019-02-28T20:33:58.995Z,53.87
2019-02-28T20:36:29.359Z,53.35
2019-02-28T20:38:59.766Z,52.90
2019-02-28T20:41:30.472Z,52.17
2019-02-28T20:44:00.861Z,51.95
2019-02-28T20:46:31.236Z,49.40
2019-02-28T20:49:02.318Z,47.85
2019-02-28T20:51:33.678Z,45.90
2019-02-28T20:54:04.073Z,46.48
2019-02-28T20:56:34.468Z,46.83
2019-02-28T20:59:04.837Z,44.75
2019-02-28T21:01:35.229Z,45.60
2019-02-28T21:04:05.631Z,44.10
2019-02-28T21:06:36.022Z,44.10
2019-02-28T21:09:07.607Z,44.70
2019-02-28T21:11:39.686Z,45.30
2019-02-28T21:14:10.160Z,44.50
2019-02-28T21:16:40.624Z,44.63
2019-02-28T21:19:10.993Z,45.55
2019-02-28T21:21:41.391Z,42.50
2019-02-28T21:24:11.770Z,42.93
2019-02-28T21:26:42.138Z,43.10
2019-02-28T21:29:12.502Z,43.65
2019-02-28T21:31:42.898Z,44.20
2019-02-28T21:34:13.354Z,42.13
2019-02-28T21:36:44.542Z,41.58
2019-02-28T21:39:15.172Z,42.88
2019-02-28T21:41:47.741Z,42.70
2019-02-28T21:44:18.251Z,48.25
2019-02-28T21:46:48.898Z,41.53
2019-02-28T21:49:19.413Z,42.85
2019-02-28T21:51:50.260Z,41.15
2019-02-28T21:54:20.901Z,41.95
2019-02-28T21:56:51.490Z,42.70
2019-02-28T21:59:23.909Z,43.02
2019-02-28T22:01:54.856Z,40.43
2019-02-28T22:04:25.719Z,40.83
2019-02-28T22:06:56.314Z,40.70
2019-02-28T22:09:27.354Z,42.65
2019-02-28T22:11:57.941Z,43.42
2019-02-28T22:14:29.598Z,41.15
2019-02-28T22:17:00.773Z,38.98
2019-02-28T22:19:31.296Z,41.30
2019-02-28T22:22:01.848Z,40.45
2019-02-28T22:24:32.450Z,38.58
2019-02-28T22:27:02.883Z,38.45
2019-02-28T22:29:33.287Z,37.63
2019-02-28T22:32:05.418Z,36.48
2019-02-28T22:34:37.525Z,35.63
2019-02-28T22:37:07.905Z,35.05
2019-02-28T22:39:38.360Z,36.30
2019-02-28T22:42:08.760Z,35.95
2019-02-28T22:44:39.118Z,34.92
2019-02-28T22:47:10.187Z,34.67
2019-02-28T22:49:40.636Z,34.63
2019-02-28T22:52:11.028Z,35.45
2019-02-28T22:54:41.429Z,33.60
2019-02-28T22:57:11.812Z,33.08
2019-02-28T22:59:42.174Z,34.25
2019-02-28T23:02:13.624Z,33.00
2019-02-28T23:04:44.096Z,33.25
2019-02-28T23:07:17.205Z,31.73
2019-02-28T23:09:48.627Z,31.60
2019-02-28T23:12:19.004Z,31.35
2019-02-28T23:14:49.377Z,32.93
2019-02-28T23:17:19.759Z,32.50
2019-02-28T23:19:50.171Z,32.20
2019-02-28T23:22:20.642Z,29.35
2019-02-28T23:24:51.003Z,31.02
2019-02-28T23:27:21.392Z,31.27
2019-02-28T23:29:56.458Z,30.85
2019-02-28T23:32:38.161Z,31.30
2019-02-28T23:35:13.475Z,29.82
2019-02-28T23:37:43.857Z,30.97
2019-02-28T23:40:14.222Z,28.60
2019-02-28T23:42:44.606Z,29.75
2019-02-28T23:45:14.969Z,29.07
2019-02-28T23:47:45.384Z,30.37
2019-02-28T23:50:18.827Z,29.27
2019-02-28T23:52:49.222Z,28.73
2019-02-28T23:55:20.554Z,30.10
2019-02-28T23:57:50.941Z,29.67
